createdAt,value
2018-07-30T00:01:19.296Z,39.10
2018-07-30T00:03:47.797Z,39.10
2018-07-30T00:06:16.137Z,39.70
2018-07-30T00:08:45.185Z,38.90
2018-07-30T00:11:13.554Z,38.80
2018-07-30T00:13:42.165Z,38.90
2018-07-30T00:16:10.608Z,39.10
2018-07-30T00:18:38.961Z,39.10
2018-07-30T00:21:07.424Z,39.10
2018-07-30T00:23:35.905Z,39.10
2018-07-30T00:26:04.386Z,39.10
2018-07-30T00:28:32.748Z,39.00
2018-07-30T00:31:01.154Z,38.90
2018-07-30T00:33:29.519Z,38.80
2018-07-30T00:35:57.948Z,39.50
2018-07-30T00:40:54.541Z,39.10
2018-07-30T00:43:23.036Z,38.80
2018-07-30T00:45:51.376Z,38.90
2018-07-30T00:48:19.899Z,38.80
2018-07-30T00:50:48.224Z,39.00
2018-07-30T00:53:16.572Z,39.00
2018-07-30T00:55:44.929Z,39.10
2018-07-30T00:58:13.291Z,39.10
2018-07-30T01:00:41.650Z,39.10
2018-07-30T01:03:10.179Z,39.00
2018-07-30T01:05:38.532Z,38.90
2018-07-30T01:08:06.904Z,38.80
2018-07-30T01:10:35.284Z,38.90
2018-07-30T01:13:03.637Z,38.90
2018-07-30T01:15:31.991Z,38.90
2018-07-30T01:18:00.645Z,39.00
2018-07-30T01:20:28.998Z,39.10
2018-07-30T01:22:57.384Z,39.10
2018-07-30T01:25:25.735Z,38.90
2018-07-30T01:27:54.083Z,39.00
2018-07-30T01:30:22.530Z,39.00
2018-07-30T01:32:51.002Z,39.00
2018-07-30T01:35:20.340Z,38.90
2018-07-30T01:37:48.830Z,38.90
2018-07-30T01:40:17.301Z,39.00
2018-07-30T01:42:45.900Z,38.90
2018-07-30T01:45:14.489Z,38.80
2018-07-30T01:47:43.327Z,38.70
2018-07-30T01:50:12.414Z,38.80
2018-07-30T01:52:40.809Z,38.90
2018-07-30T01:55:09.192Z,39.10
2018-07-30T01:57:37.629Z,39.10
2018-07-30T02:00:06.567Z,39.10
2018-07-30T02:02:41.598Z,39.30
2018-07-30T02:05:10.061Z,39.40
2018-07-30T02:07:39.193Z,39.60
2018-07-30T02:10:09.333Z,39.60
2018-07-30T02:12:38.692Z,39.60
2018-07-30T02:15:07.320Z,39.80
2018-07-30T02:17:35.704Z,39.90
2018-07-30T02:20:04.217Z,39.40
2018-07-30T02:22:32.773Z,40.10
2018-07-30T02:27:35.750Z,40.50
2018-07-30T02:30:05.472Z,40.40
2018-07-30T02:32:33.876Z,40.30
2018-07-30T02:35:02.320Z,40.30
2018-07-30T02:37:31.322Z,40.50
2018-07-30T02:39:59.647Z,40.60
2018-07-30T02:42:27.991Z,40.80
2018-07-30T02:44:56.486Z,40.80
2018-07-30T02:47:24.819Z,40.90
2018-07-30T02:49:53.508Z,40.90
2018-07-30T02:52:21.860Z,40.80
2018-07-30T02:54:50.519Z,40.90
2018-07-30T02:57:18.908Z,40.80
2018-07-30T02:59:47.240Z,40.90
2018-07-30T03:02:15.824Z,40.90
2018-07-30T03:04:44.176Z,41.50
2018-07-30T03:07:13.020Z,40.80
2018-07-30T03:09:41.356Z,40.90
2018-07-30T03:12:09.835Z,41.00
2018-07-30T03:14:38.208Z,40.80
2018-07-30T03:17:06.557Z,40.80
2018-07-30T03:19:34.936Z,41.00
2018-07-30T03:22:03.389Z,41.10
2018-07-30T03:24:32.504Z,41.00
2018-07-30T03:27:01.372Z,41.00
2018-07-30T03:29:29.705Z,41.00
2018-07-30T03:31:58.078Z,41.00
2018-07-30T03:34:26.461Z,41.10
2018-07-30T03:36:54.800Z,40.90
2018-07-30T03:41:51.247Z,41.40
2018-07-30T03:44:19.594Z,40.90
2018-07-30T03:46:48.306Z,40.80
2018-07-30T03:49:16.704Z,41.60
2018-07-30T03:51:46.144Z,41.00
2018-07-30T03:54:14.680Z,41.10
2018-07-30T03:56:43.100Z,41.10
2018-07-30T03:59:11.453Z,41.20
2018-07-30T04:01:39.812Z,41.10
2018-07-30T04:04:08.185Z,41.20
2018-07-30T04:06:36.744Z,41.30
2018-07-30T04:09:06.791Z,41.20
2018-07-30T04:14:03.234Z,42.00
2018-07-30T04:16:36.405Z,41.10
2018-07-30T04:19:05.005Z,41.80
2018-07-30T04:21:33.361Z,41.10
2018-07-30T04:24:01.727Z,41.20
2018-07-30T04:26:30.156Z,41.40
2018-07-30T04:28:58.665Z,41.20
2018-07-30T04:31:27.009Z,41.40
2018-07-30T04:33:55.426Z,41.20
2018-07-30T04:36:23.763Z,41.20
2018-07-30T04:38:52.427Z,41.20
2018-07-30T04:41:20.759Z,41.20
2018-07-30T04:43:49.145Z,41.00
2018-07-30T04:46:17.791Z,41.10
2018-07-30T04:48:46.659Z,41.20
2018-07-30T04:51:14.996Z,41.30
2018-07-30T04:53:43.352Z,41.10
2018-07-30T04:56:11.733Z,41.10
2018-07-30T04:58:40.116Z,41.40
2018-07-30T05:01:08.704Z,41.20
2018-07-30T05:03:37.165Z,41.40
2018-07-30T05:06:05.691Z,41.50
2018-07-30T05:08:34.578Z,41.60
2018-07-30T05:11:03.193Z,41.30
2018-07-30T05:13:31.703Z,41.00
2018-07-30T05:16:00.334Z,40.90
2018-07-30T05:18:28.683Z,40.70
2018-07-30T05:20:57.064Z,40.60
2018-07-30T05:23:25.400Z,40.50
2018-07-30T05:25:53.960Z,40.40
2018-07-30T05:28:22.367Z,40.20
2018-07-30T05:30:50.858Z,40.00
2018-07-30T05:33:19.286Z,39.90
2018-07-30T05:35:47.673Z,39.80
2018-07-30T05:38:16.188Z,39.80
2018-07-30T05:40:44.545Z,40.00
2018-07-30T05:43:12.960Z,40.00
2018-07-30T05:45:41.640Z,40.00
2018-07-30T05:48:09.996Z,40.10
2018-07-30T05:50:38.527Z,40.40
2018-07-30T05:53:06.868Z,40.60
2018-07-30T05:55:35.404Z,40.30
2018-07-30T05:58:03.811Z,41.10
2018-07-30T06:00:32.419Z,41.40
2018-07-30T06:03:01.586Z,41.60
2018-07-30T06:05:30.015Z,41.50
2018-07-30T06:07:58.365Z,41.10
2018-07-30T06:10:26.808Z,41.00
2018-07-30T06:12:55.545Z,41.00
2018-07-30T06:15:23.931Z,41.00
2018-07-30T06:17:52.350Z,40.90
2018-07-30T06:20:21.179Z,41.00
2018-07-30T06:22:49.873Z,40.90
2018-07-30T06:25:18.483Z,40.80
2018-07-30T06:27:46.832Z,40.90
2018-07-30T06:30:15.292Z,41.80
2018-07-30T06:32:44.025Z,41.50
2018-07-30T06:35:12.416Z,41.60
2018-07-30T06:37:40.792Z,41.70
2018-07-30T06:40:09.132Z,42.40
2018-07-30T06:42:37.495Z,41.70
2018-07-30T06:45:06.160Z,41.70
2018-07-30T06:47:34.509Z,41.50
2018-07-30T06:50:03.042Z,41.60
2018-07-30T06:52:31.395Z,41.40
2018-07-30T06:54:59.836Z,41.50
2018-07-30T06:57:28.204Z,41.20
2018-07-30T06:59:56.575Z,41.20
2018-07-30T07:02:25.009Z,41.30
2018-07-30T07:04:53.592Z,41.40
2018-07-30T07:07:22.049Z,41.20
2018-07-30T07:09:50.418Z,41.20
2018-07-30T07:12:19.479Z,41.40
2018-07-30T07:14:47.809Z,41.40
2018-07-30T07:17:16.339Z,41.40
2018-07-30T07:19:44.719Z,41.40
2018-07-30T07:22:13.352Z,41.30
2018-07-30T07:24:41.885Z,41.10
2018-07-30T07:27:10.298Z,41.30
2018-07-30T07:29:39.391Z,41.00
2018-07-30T07:32:08.447Z,41.00
2018-07-30T07:34:37.064Z,41.00
2018-07-30T07:37:05.525Z,40.90
2018-07-30T07:39:33.882Z,40.80
2018-07-30T07:42:02.404Z,40.80
2018-07-30T07:44:30.763Z,40.80
2018-07-30T07:46:59.700Z,40.80
2018-07-30T07:49:28.308Z,40.90
2018-07-30T07:51:56.780Z,40.80
2018-07-30T07:54:25.299Z,40.80
2018-07-30T07:56:53.736Z,40.80
2018-07-30T07:59:22.375Z,40.90
2018-07-30T08:01:50.733Z,41.00
2018-07-30T08:04:19.339Z,41.00
2018-07-30T08:06:47.719Z,41.00
2018-07-30T08:09:16.137Z,41.20
2018-07-30T08:11:44.492Z,41.30
2018-07-30T08:14:12.980Z,41.20
2018-07-30T08:16:41.561Z,41.10
2018-07-30T08:19:09.966Z,41.10
2018-07-30T08:21:38.348Z,41.00
2018-07-30T08:24:07.311Z,41.10
2018-07-30T08:26:35.671Z,41.10
2018-07-30T08:29:04.767Z,41.10
2018-07-30T08:31:33.136Z,41.10
2018-07-30T08:34:01.567Z,41.10
2018-07-30T08:36:30.824Z,41.20
2018-07-30T08:38:59.192Z,41.40
2018-07-30T08:41:27.551Z,41.30
2018-07-30T08:43:55.911Z,41.40
2018-07-30T08:46:24.634Z,41.40
2018-07-30T08:48:53.242Z,41.50
2018-07-30T08:51:21.550Z,41.50
2018-07-30T08:53:49.925Z,41.60
2018-07-30T08:56:18.502Z,41.60
2018-07-30T08:58:46.839Z,41.70
2018-07-30T09:01:15.197Z,41.70
2018-07-30T09:03:44.381Z,41.70
2018-07-30T09:06:12.724Z,41.60
2018-07-30T09:08:41.164Z,41.70
2018-07-30T09:11:09.501Z,41.70
2018-07-30T09:13:37.984Z,41.80
2018-07-30T09:18:34.608Z,42.50
2018-07-30T09:21:03.828Z,42.80
2018-07-30T09:23:38.939Z,42.20
2018-07-30T09:26:07.294Z,42.30
2018-07-30T09:28:35.665Z,42.30
2018-07-30T09:31:04.069Z,42.40
2018-07-30T09:33:32.496Z,42.40
2018-07-30T09:36:01.032Z,42.30
2018-07-30T09:38:30.084Z,42.50
2018-07-30T09:40:58.452Z,42.50
2018-07-30T09:43:27.012Z,42.50
2018-07-30T09:45:55.405Z,42.50
2018-07-30T09:48:24.344Z,42.50
2018-07-30T09:50:52.701Z,42.50
2018-07-30T09:53:21.041Z,42.40
2018-07-30T09:55:49.502Z,42.40
2018-07-30T09:58:17.855Z,42.40
2018-07-30T10:00:51.781Z,42.40
2018-07-30T10:03:20.136Z,42.40
2018-07-30T10:05:48.478Z,42.40
2018-07-30T10:08:17.115Z,42.40
2018-07-30T10:10:45.483Z,42.30
2018-07-30T10:13:13.878Z,42.40
2018-07-30T10:15:42.413Z,42.50
2018-07-30T10:18:11.001Z,42.60
2018-07-30T10:20:39.320Z,42.90
2018-07-30T10:23:07.870Z,42.60
2018-07-30T10:25:36.263Z,42.60
2018-07-30T10:28:04.652Z,42.70
2018-07-30T10:30:33.051Z,42.70
2018-07-30T10:33:02.197Z,42.60
2018-07-30T10:35:30.701Z,42.60
2018-07-30T10:37:59.188Z,42.70
2018-07-30T10:40:27.684Z,42.70
2018-07-30T10:42:56.036Z,42.70
2018-07-30T10:45:24.646Z,42.70
2018-07-30T10:47:53.058Z,42.70
2018-07-30T10:50:21.416Z,42.60
2018-07-30T10:52:49.841Z,42.60
2018-07-30T10:55:18.233Z,42.50
2018-07-30T10:57:46.633Z,42.50
2018-07-30T11:00:15.162Z,42.50
2018-07-30T11:02:43.509Z,42.50
2018-07-30T11:05:11.875Z,42.50
2018-07-30T11:07:40.839Z,42.50
2018-07-30T11:10:09.214Z,42.50
2018-07-30T11:12:37.584Z,42.50
2018-07-30T11:15:06.198Z,42.50
2018-07-30T11:17:34.790Z,42.50
2018-07-30T11:20:03.973Z,42.50
2018-07-30T11:22:32.807Z,42.40
2018-07-30T11:25:01.209Z,42.50
2018-07-30T11:27:29.709Z,43.10
2018-07-30T11:29:58.243Z,42.50
2018-07-30T11:32:26.606Z,42.50
2018-07-30T11:34:54.964Z,42.50
2018-07-30T11:37:23.500Z,42.50
2018-07-30T11:39:51.952Z,42.50
2018-07-30T11:42:20.337Z,42.50
2018-07-30T11:44:48.729Z,42.40
2018-07-30T11:47:17.344Z,42.40
2018-07-30T11:49:45.736Z,42.40
2018-07-30T11:52:14.212Z,42.40
2018-07-30T11:54:42.674Z,42.40
2018-07-30T11:57:11.032Z,42.40
2018-07-30T11:59:39.393Z,42.40
2018-07-30T12:02:07.804Z,42.30
2018-07-30T12:04:36.776Z,42.30
2018-07-30T12:07:05.380Z,42.40
2018-07-30T12:09:33.755Z,42.40
2018-07-30T12:12:02.144Z,42.30
2018-07-30T12:14:30.513Z,42.40
2018-07-30T12:16:59.031Z,42.30
2018-07-30T12:19:27.432Z,42.30
2018-07-30T12:21:56.004Z,42.30
2018-07-30T12:24:24.348Z,42.30
2018-07-30T12:26:52.704Z,42.30
2018-07-30T12:29:21.069Z,42.40
2018-07-30T12:31:49.541Z,42.40
2018-07-30T12:34:17.910Z,42.30
2018-07-30T12:36:46.279Z,42.30
2018-07-30T12:39:14.693Z,42.30
2018-07-30T12:41:43.164Z,42.30
2018-07-30T12:44:11.569Z,42.30
2018-07-30T12:46:41.078Z,42.20
2018-07-30T12:49:09.959Z,42.20
2018-07-30T12:51:38.313Z,42.10
2018-07-30T12:54:06.736Z,42.10
2018-07-30T12:56:35.852Z,42.10
2018-07-30T12:59:04.332Z,42.10
2018-07-30T13:01:33.163Z,42.10
2018-07-30T13:04:01.697Z,42.10
2018-07-30T13:06:30.057Z,42.10
2018-07-30T13:08:58.415Z,42.10
2018-07-30T13:11:26.822Z,42.10
2018-07-30T13:13:55.745Z,42.10
2018-07-30T13:16:24.288Z,42.00
2018-07-30T13:18:52.675Z,42.00
2018-07-30T13:21:21.044Z,41.90
2018-07-30T13:23:49.457Z,42.00
2018-07-30T13:26:18.637Z,42.00
2018-07-30T13:28:47.539Z,41.90
2018-07-30T13:31:15.929Z,41.80
2018-07-30T13:33:44.917Z,41.80
2018-07-30T13:38:41.397Z,42.30
2018-07-30T13:41:10.496Z,41.80
2018-07-30T13:43:38.851Z,41.80
2018-07-30T13:46:07.209Z,41.80
2018-07-30T13:48:35.731Z,42.50
2018-07-30T13:51:04.265Z,41.90
2018-07-30T13:53:32.647Z,41.80
2018-07-30T13:56:01.011Z,41.80
2018-07-30T13:58:30.056Z,41.70
2018-07-30T14:00:58.461Z,41.70
2018-07-30T14:03:26.811Z,41.60
2018-07-30T14:05:55.175Z,41.60
2018-07-30T14:08:23.860Z,41.60
2018-07-30T14:10:52.346Z,41.70
2018-07-30T14:13:20.756Z,41.70
2018-07-30T14:15:49.122Z,41.70
2018-07-30T14:18:18.025Z,41.60
2018-07-30T14:20:46.525Z,41.60
2018-07-30T14:23:14.985Z,41.60
2018-07-30T14:25:43.360Z,41.70
2018-07-30T14:28:11.894Z,41.70
2018-07-30T14:30:41.080Z,41.60
2018-07-30T14:33:09.519Z,41.60
2018-07-30T14:35:37.932Z,41.50
2018-07-30T14:38:06.448Z,41.50
2018-07-30T14:40:34.803Z,41.60
2018-07-30T14:43:03.264Z,41.50
2018-07-30T14:45:31.843Z,41.50
2018-07-30T14:48:00.276Z,41.50
2018-07-30T14:50:28.632Z,41.50
2018-07-30T14:52:57.045Z,41.40
2018-07-30T14:55:25.420Z,41.40
2018-07-30T15:00:22.164Z,40.80
2018-07-30T15:02:50.636Z,41.30
2018-07-30T15:05:21.488Z,41.30
2018-07-30T15:07:51.099Z,41.30
2018-07-30T15:10:19.531Z,41.40
2018-07-30T15:12:47.964Z,41.40
2018-07-30T15:15:16.310Z,41.40
2018-07-30T15:17:44.658Z,41.20
2018-07-30T15:20:13.189Z,41.20
2018-07-30T15:22:41.540Z,41.20
2018-07-30T15:25:09.912Z,41.20
2018-07-30T15:27:38.364Z,41.20
2018-07-30T15:30:08.127Z,41.20
2018-07-30T15:32:36.596Z,41.20
2018-07-30T15:35:05.023Z,41.10
2018-07-30T15:37:33.444Z,41.20
2018-07-30T15:40:01.995Z,41.20
2018-07-30T15:42:30.512Z,41.10
2018-07-30T15:44:58.889Z,41.20
2018-07-30T15:47:27.513Z,41.20
2018-07-30T15:49:55.852Z,41.20
2018-07-30T15:52:24.362Z,41.10
2018-07-30T15:54:52.933Z,41.20
2018-07-30T15:57:21.387Z,41.20
2018-07-30T15:59:49.794Z,41.20
2018-07-30T16:02:18.208Z,41.20
2018-07-30T16:04:46.591Z,41.30
2018-07-30T16:07:14.991Z,41.30
2018-07-30T16:09:43.355Z,41.30
2018-07-30T16:12:11.910Z,41.30
2018-07-30T16:14:40.470Z,41.40
2018-07-30T16:17:10.101Z,41.40
2018-07-30T16:19:38.985Z,41.30
2018-07-30T16:22:08.484Z,41.40
2018-07-30T16:24:37.558Z,41.40
2018-07-30T16:27:06.536Z,41.40
2018-07-30T16:29:35.095Z,41.30
2018-07-30T16:32:04.148Z,41.20
2018-07-30T16:34:32.739Z,41.20
2018-07-30T16:37:01.331Z,41.20
2018-07-30T16:39:29.796Z,41.20
2018-07-30T16:41:58.330Z,41.20
2018-07-30T16:46:54.897Z,41.20
2018-07-30T16:49:23.447Z,41.10
2018-07-30T16:51:52.036Z,41.10
2018-07-30T16:54:20.453Z,41.10
2018-07-30T16:56:48.871Z,41.20
2018-07-30T16:59:17.961Z,41.20
2018-07-30T17:01:46.328Z,41.10
2018-07-30T17:04:14.771Z,41.10
2018-07-30T17:06:43.170Z,41.10
2018-07-30T17:09:12.325Z,41.10
2018-07-30T17:11:41.016Z,41.10
2018-07-30T17:14:09.592Z,41.10
2018-07-30T17:16:37.952Z,41.10
2018-07-30T17:19:06.697Z,41.10
2018-07-30T17:21:35.061Z,41.20
2018-07-30T17:24:03.441Z,41.20
2018-07-30T17:26:31.820Z,41.20
2018-07-30T17:29:00.541Z,41.20
2018-07-30T17:31:29.234Z,41.20
2018-07-30T17:33:58.610Z,41.30
2018-07-30T17:36:27.503Z,41.20
2018-07-30T17:38:56.646Z,41.30
2018-07-30T17:41:25.489Z,41.20
2018-07-30T17:43:53.937Z,41.20
2018-07-30T17:46:22.758Z,41.30
2018-07-30T17:48:51.159Z,42.10
2018-07-30T17:51:19.939Z,41.70
2018-07-30T17:53:48.730Z,41.90
2018-07-30T17:56:17.234Z,42.10
2018-07-30T17:58:45.989Z,43.00
2018-07-30T18:01:15.577Z,42.50
2018-07-30T18:03:44.384Z,42.60
2018-07-30T18:06:12.911Z,42.60
2018-07-30T18:08:41.347Z,42.50
2018-07-30T18:11:09.866Z,42.40
2018-07-30T18:13:38.227Z,42.20
2018-07-30T18:16:06.604Z,42.20
2018-07-30T18:18:35.027Z,42.10
2018-07-30T18:21:04.236Z,42.10
2018-07-30T18:23:32.805Z,42.00
2018-07-30T18:26:01.252Z,42.00
2018-07-30T18:28:29.640Z,41.90
2018-07-30T18:30:58.041Z,41.90
2018-07-30T18:33:26.478Z,41.90
2018-07-30T18:35:55.064Z,41.90
2018-07-30T18:38:23.480Z,41.90
2018-07-30T18:40:51.940Z,41.90
2018-07-30T18:43:20.245Z,42.00
2018-07-30T18:45:48.593Z,42.00
2018-07-30T18:48:17.140Z,42.00
2018-07-30T18:50:45.499Z,42.00
2018-07-30T18:53:14.001Z,42.00
2018-07-30T18:55:42.363Z,41.90
2018-07-30T18:58:11.202Z,41.90
2018-07-30T19:00:40.662Z,41.90
2018-07-30T19:03:09.036Z,42.00
2018-07-30T19:05:37.518Z,42.00
2018-07-30T19:08:07.245Z,42.00
2018-07-30T19:10:35.860Z,42.10
2018-07-30T19:13:04.284Z,42.10
2018-07-30T19:15:32.752Z,42.30
2018-07-30T19:18:01.244Z,42.30
2018-07-30T19:20:30.275Z,42.30
2018-07-30T19:22:59.886Z,42.30
2018-07-30T19:25:28.750Z,42.30
2018-07-30T19:27:57.680Z,42.30
2018-07-30T19:30:26.504Z,42.30
2018-07-30T19:32:55.051Z,42.30
2018-07-30T19:35:23.680Z,42.20
2018-07-30T19:37:53.081Z,42.10
2018-07-30T19:40:22.318Z,42.10
2018-07-30T19:42:51.342Z,42.00
2018-07-30T19:45:20.040Z,42.00
2018-07-30T19:47:48.603Z,42.10
2018-07-30T19:50:17.232Z,42.20
2018-07-30T19:52:45.985Z,42.20
2018-07-30T19:55:14.856Z,42.20
2018-07-30T19:57:44.725Z,42.20
2018-07-30T20:00:13.437Z,42.10
2018-07-30T20:02:42.325Z,42.00
2018-07-30T20:05:11.075Z,41.90
2018-07-30T20:07:40.025Z,42.00
2018-07-30T20:10:08.669Z,41.90
2018-07-30T20:12:37.708Z,41.90
2018-07-30T20:15:07.314Z,42.40
2018-07-30T20:17:36.295Z,41.90
2018-07-30T20:20:05.923Z,41.90
2018-07-30T20:22:34.596Z,41.90
2018-07-30T20:25:03.054Z,41.90
2018-07-30T20:27:32.079Z,41.80
2018-07-30T20:30:01.067Z,41.80
2018-07-30T20:32:29.527Z,41.70
2018-07-30T20:34:59.091Z,41.70
2018-07-30T20:37:27.902Z,41.80
2018-07-30T20:39:56.667Z,41.80
2018-07-30T20:42:25.127Z,42.30
2018-07-30T20:44:54.364Z,41.80
2018-07-30T20:47:22.905Z,41.70
2018-07-30T20:49:52.204Z,41.70
2018-07-30T20:52:21.369Z,41.70
2018-07-30T20:54:50.136Z,41.70
2018-07-30T20:57:18.699Z,41.70
2018-07-30T20:59:47.132Z,41.80
2018-07-30T21:02:15.687Z,41.80
2018-07-30T21:04:44.364Z,41.70
2018-07-30T21:07:12.731Z,41.80
2018-07-30T21:09:41.232Z,41.90
2018-07-30T21:12:09.916Z,42.00
2018-07-30T21:14:38.432Z,42.00
2018-07-30T21:17:07.007Z,42.00
2018-07-30T21:19:36.443Z,41.90
2018-07-30T21:22:04.904Z,41.90
2018-07-30T21:24:33.293Z,41.90
2018-07-30T21:27:02.237Z,42.00
2018-07-30T21:29:31.393Z,42.00
2018-07-30T21:31:59.768Z,42.10
2018-07-30T21:34:28.951Z,42.20
2018-07-30T21:36:58.408Z,42.20
2018-07-30T21:39:27.856Z,42.30
2018-07-30T21:41:56.897Z,42.30
2018-07-30T21:44:25.505Z,42.30
2018-07-30T21:46:54.005Z,42.30
2018-07-30T21:49:22.375Z,42.90
2018-07-30T21:51:51.588Z,42.40
2018-07-30T21:54:20.089Z,42.40
2018-07-30T21:56:48.761Z,42.40
2018-07-30T21:59:17.488Z,42.40
2018-07-30T22:01:46.123Z,42.50
2018-07-30T22:04:14.561Z,42.50
2018-07-30T22:06:43.115Z,42.50
2018-07-30T22:09:11.634Z,42.60
2018-07-30T22:11:40.846Z,42.60
2018-07-30T22:14:09.295Z,42.60
2018-07-30T22:16:38.591Z,42.60
2018-07-30T22:19:07.077Z,42.60
2018-07-30T22:21:35.576Z,42.60
2018-07-30T22:24:04.286Z,42.60
2018-07-30T22:26:32.944Z,42.50
2018-07-30T22:29:01.537Z,42.50
2018-07-30T22:31:29.888Z,42.50
2018-07-30T22:33:58.509Z,42.40
2018-07-30T22:36:26.864Z,42.40
2018-07-30T22:38:55.237Z,42.40
2018-07-30T22:41:23.856Z,42.30
2018-07-30T22:46:20.680Z,42.10
2018-07-30T22:48:49.016Z,42.00
2018-07-30T22:51:17.392Z,41.90
2018-07-30T22:53:46.624Z,41.80
2018-07-30T22:56:15.061Z,41.70
2018-07-30T22:58:43.735Z,41.70
2018-07-30T23:01:12.364Z,41.60
2018-07-30T23:03:41.434Z,41.70
2018-07-30T23:06:09.800Z,41.60
2018-07-30T23:08:38.445Z,41.50
2018-07-30T23:11:06.852Z,41.50
2018-07-30T23:13:35.217Z,41.50
2018-07-30T23:16:03.589Z,41.30
2018-07-30T23:18:31.942Z,41.20
2018-07-30T23:21:00.291Z,41.00
2018-07-30T23:23:29.332Z,40.80
2018-07-30T23:25:57.897Z,40.70
2018-07-30T23:28:26.423Z,40.50
2018-07-30T23:30:54.760Z,40.30
2018-07-30T23:33:23.204Z,40.80
2018-07-30T23:35:51.636Z,40.00
2018-07-30T23:38:20.240Z,39.80
2018-07-30T23:40:48.607Z,39.70
2018-07-30T23:43:16.998Z,39.60
2018-07-30T23:45:45.381Z,39.50
2018-07-30T23:48:13.779Z,39.50
2018-07-30T23:50:42.135Z,39.40
2018-07-30T23:53:10.496Z,39.40
2018-07-30T23:55:39.967Z,39.60
2018-07-30T23:58:08.345Z,40.00
